createdAt,value
2022-08-29T00:01:31.482Z,27.86
2022-08-29T00:04:00.947Z,27.86
2022-08-29T00:06:29.067Z,27.84
2022-08-29T00:08:57.119Z,27.83
2022-08-29T00:11:25.206Z,27.83
2022-08-29T00:13:53.237Z,27.82
2022-08-29T00:16:21.257Z,27.82
2022-08-29T00:18:49.307Z,27.82
2022-08-29T00:21:18.748Z,27.82
2022-08-29T00:23:46.715Z,27.81
2022-08-29T00:26:14.678Z,27.80
2022-08-29T00:28:42.643Z,27.81
2022-08-29T00:31:10.708Z,27.81
2022-08-29T00:33:39.271Z,27.81
2022-08-29T00:36:07.925Z,27.81
2022-08-29T00:38:37.568Z,27.81
2022-08-29T00:41:06.843Z,27.81
2022-08-29T00:43:36.206Z,27.81
2022-08-29T00:46:11.209Z,27.81
2022-08-29T00:48:39.980Z,27.81
2022-08-29T00:51:09.128Z,27.82
2022-08-29T00:53:40.537Z,27.82
2022-08-29T00:56:08.925Z,27.81
2022-08-29T00:58:38.435Z,27.81
2022-08-29T01:01:06.722Z,27.80
2022-08-29T01:03:35.175Z,27.80
2022-08-29T01:06:03.589Z,27.79
2022-08-29T01:08:31.610Z,27.78
2022-08-29T01:11:18.645Z,27.78
2022-08-29T01:13:47.013Z,27.77
2022-08-29T01:16:16.103Z,27.76
2022-08-29T01:18:45.383Z,27.76
2022-08-29T01:21:16.134Z,27.76
2022-08-29T01:23:46.124Z,27.75
2022-08-29T01:26:15.514Z,27.75
2022-08-29T01:28:45.037Z,27.74
2022-08-29T01:31:14.880Z,27.75
2022-08-29T01:34:03.054Z,27.75
2022-08-29T01:36:35.529Z,27.76
2022-08-29T01:39:03.585Z,27.76
2022-08-29T01:41:33.463Z,27.76
2022-08-29T01:44:01.940Z,27.76
2022-08-29T01:46:31.613Z,27.77
2022-08-29T01:48:59.871Z,27.75
2022-08-29T01:51:28.024Z,27.76
2022-08-29T01:53:56.066Z,27.76
2022-08-29T01:56:25.979Z,27.76
2022-08-29T01:58:55.683Z,27.75
2022-08-29T02:01:25.405Z,27.75
2022-08-29T02:03:53.563Z,27.75
2022-08-29T02:06:21.679Z,27.75
2022-08-29T02:08:49.707Z,27.75
2022-08-29T02:11:17.981Z,27.74
2022-08-29T02:13:47.223Z,27.74
2022-08-29T02:16:17.303Z,27.74
2022-08-29T02:18:45.896Z,27.71
2022-08-29T02:21:14.497Z,27.72
2022-08-29T02:23:42.492Z,27.71
2022-08-29T02:26:10.606Z,27.72
2022-08-29T02:28:38.764Z,27.71
2022-08-29T02:31:07.773Z,27.71
2022-08-29T02:33:37.346Z,27.70
2022-08-29T02:36:06.002Z,27.70
2022-08-29T02:38:34.193Z,27.70
2022-08-29T02:41:02.378Z,27.70
2022-08-29T02:43:30.405Z,27.70
2022-08-29T02:45:58.384Z,27.69
2022-08-29T02:48:26.429Z,27.71
2022-08-29T02:50:56.565Z,27.71
2022-08-29T02:53:25.751Z,27.71
2022-08-29T02:55:53.746Z,27.69
2022-08-29T02:58:22.054Z,27.70
2022-08-29T03:00:50.265Z,27.69
2022-08-29T03:03:19.701Z,27.69
2022-08-29T03:05:47.859Z,27.70
2022-08-29T03:08:18.897Z,27.69
2022-08-29T03:10:46.897Z,27.68
2022-08-29T03:13:14.890Z,27.68
2022-08-29T03:15:42.998Z,27.67
2022-08-29T03:18:11.037Z,27.67
2022-08-29T03:20:39.114Z,27.66
2022-08-29T03:23:07.138Z,27.66
2022-08-29T03:25:37.896Z,27.64
2022-08-29T03:28:05.970Z,27.65
2022-08-29T03:30:34.755Z,27.63
2022-08-29T03:33:06.863Z,27.63
2022-08-29T03:35:36.836Z,27.64
2022-08-29T03:38:04.974Z,27.64
2022-08-29T03:40:33.137Z,27.64
2022-08-29T03:43:03.381Z,27.63
2022-08-29T03:45:31.880Z,27.64
2022-08-29T03:47:59.908Z,27.64
2022-08-29T03:50:30.414Z,27.65
2022-08-29T03:52:59.514Z,27.64
2022-08-29T03:55:27.528Z,27.64
2022-08-29T03:57:56.061Z,27.66
2022-08-29T04:00:25.696Z,27.65
2022-08-29T04:02:55.617Z,27.64
2022-08-29T04:05:23.691Z,27.64
2022-08-29T04:07:52.653Z,27.63
2022-08-29T04:10:21.915Z,27.64
2022-08-29T04:12:54.264Z,27.63
2022-08-29T04:15:23.182Z,27.63
2022-08-29T04:17:54.526Z,27.62
2022-08-29T04:20:25.413Z,27.61
2022-08-29T04:22:54.233Z,27.61
2022-08-29T04:25:22.547Z,27.61
2022-08-29T04:27:50.640Z,27.61
2022-08-29T04:30:19.760Z,27.59
2022-08-29T04:32:47.787Z,27.59
2022-08-29T04:35:17.414Z,27.59
2022-08-29T04:37:45.434Z,27.59
2022-08-29T04:40:15.525Z,27.60
2022-08-29T04:42:43.692Z,27.58
2022-08-29T04:45:13.297Z,27.59
2022-08-29T04:47:41.319Z,27.59
2022-08-29T04:50:10.950Z,27.59
2022-08-29T04:52:40.558Z,27.60
2022-08-29T04:55:09.882Z,27.59
2022-08-29T04:57:38.304Z,27.60
2022-08-29T05:00:07.694Z,27.60
2022-08-29T05:02:35.747Z,27.60
2022-08-29T05:05:09.643Z,27.60
2022-08-29T05:07:38.301Z,27.59
2022-08-29T05:10:09.493Z,27.59
2022-08-29T05:12:37.717Z,27.58
2022-08-29T05:15:06.154Z,27.58
2022-08-29T05:17:34.466Z,27.58
2022-08-29T05:20:03.968Z,27.57
2022-08-29T05:22:31.991Z,27.58
2022-08-29T05:25:00.045Z,27.57
2022-08-29T05:27:29.930Z,27.57
2022-08-29T05:29:58.484Z,27.55
2022-08-29T05:32:26.661Z,27.56
2022-08-29T05:34:55.914Z,27.55
2022-08-29T05:37:24.058Z,27.55
2022-08-29T05:39:52.179Z,27.55
2022-08-29T05:42:22.065Z,27.56
2022-08-29T05:44:52.045Z,27.56
2022-08-29T05:47:20.218Z,27.57
2022-08-29T05:49:48.699Z,27.56
2022-08-29T05:52:18.273Z,27.56
2022-08-29T05:54:46.315Z,27.56
2022-08-29T05:57:19.177Z,27.56
2022-08-29T05:59:47.491Z,27.56
2022-08-29T06:02:17.069Z,27.57
2022-08-29T06:04:45.518Z,27.56
2022-08-29T06:07:13.653Z,27.56
2022-08-29T06:09:42.123Z,27.56
2022-08-29T06:12:10.366Z,27.56
2022-08-29T06:14:38.447Z,27.55
2022-08-29T06:17:09.262Z,27.55
2022-08-29T06:19:39.579Z,27.53
2022-08-29T06:22:09.799Z,27.54
2022-08-29T06:24:38.573Z,27.53
2022-08-29T06:27:06.693Z,27.52
2022-08-29T06:29:42.845Z,27.54
2022-08-29T06:32:11.791Z,27.53
2022-08-29T06:34:41.258Z,27.52
2022-08-29T06:37:09.233Z,27.54
2022-08-29T06:39:37.463Z,27.53
2022-08-29T06:42:05.655Z,27.54
2022-08-29T06:44:33.633Z,27.53
2022-08-29T06:47:01.651Z,27.54
2022-08-29T06:49:29.886Z,27.55
2022-08-29T06:51:59.427Z,27.54
2022-08-29T06:54:28.694Z,27.55
2022-08-29T06:56:56.909Z,27.55
2022-08-29T06:59:24.958Z,27.56
2022-08-29T07:01:53.048Z,27.55
2022-08-29T07:04:21.234Z,27.55
2022-08-29T07:06:49.563Z,27.56
2022-08-29T07:09:18.918Z,27.56
2022-08-29T07:11:46.877Z,27.55
2022-08-29T07:14:15.074Z,27.54
2022-08-29T07:16:43.191Z,27.55
2022-08-29T07:19:11.453Z,27.56
2022-08-29T07:21:39.481Z,27.55
2022-08-29T07:24:07.894Z,27.56
2022-08-29T07:26:39.087Z,27.56
2022-08-29T07:29:08.495Z,27.55
2022-08-29T07:31:36.546Z,27.55
2022-08-29T07:34:04.671Z,27.55
2022-08-29T07:36:34.400Z,27.56
2022-08-29T07:39:02.953Z,27.55
2022-08-29T07:41:31.133Z,27.56
2022-08-29T07:44:00.851Z,27.55
2022-08-29T07:46:29.256Z,27.57
2022-08-29T07:48:57.361Z,27.56
2022-08-29T07:51:25.522Z,27.58
2022-08-29T07:53:53.715Z,27.58
2022-08-29T07:56:24.577Z,27.57
2022-08-29T07:58:53.039Z,27.59
2022-08-29T08:01:22.520Z,27.58
2022-08-29T08:03:51.010Z,27.59
2022-08-29T08:06:19.478Z,27.58
2022-08-29T08:08:47.611Z,27.59
2022-08-29T08:11:15.826Z,27.59
2022-08-29T08:13:44.447Z,27.59
2022-08-29T08:16:14.033Z,27.60
2022-08-29T08:18:43.846Z,27.60
2022-08-29T08:21:11.966Z,27.61
2022-08-29T08:23:40.180Z,27.61
2022-08-29T08:26:09.031Z,27.60
2022-08-29T08:28:37.129Z,27.60
2022-08-29T08:31:06.941Z,27.60
2022-08-29T08:33:35.499Z,27.61
2022-08-29T08:36:06.287Z,27.62
2022-08-29T08:38:34.285Z,27.62
2022-08-29T08:41:05.603Z,27.65
2022-08-29T08:43:42.369Z,27.66
2022-08-29T08:46:10.521Z,27.67
2022-08-29T08:48:39.253Z,27.67
2022-08-29T08:51:10.964Z,27.68
2022-08-29T08:53:39.994Z,27.69
2022-08-29T08:56:12.840Z,27.69
2022-08-29T08:58:46.190Z,27.69
2022-08-29T09:01:20.321Z,27.70
2022-08-29T09:04:31.530Z,27.70
2022-08-29T09:07:10.535Z,27.72
2022-08-29T09:09:44.813Z,27.72
2022-08-29T09:12:17.623Z,27.72
2022-08-29T09:14:54.219Z,27.72
2022-08-29T09:17:25.007Z,27.72
2022-08-29T09:19:53.017Z,27.72
2022-08-29T09:22:26.708Z,27.72
2022-08-29T09:25:02.244Z,27.72
2022-08-29T09:27:32.222Z,27.74
2022-08-29T09:30:05.157Z,27.75
2022-08-29T09:32:33.431Z,27.77
2022-08-29T09:35:09.991Z,27.78
2022-08-29T09:37:39.689Z,27.78
2022-08-29T09:40:11.165Z,27.79
2022-08-29T09:42:41.613Z,27.79
2022-08-29T09:45:18.105Z,27.80
2022-08-29T09:47:46.451Z,27.81
2022-08-29T09:50:20.185Z,27.82
2022-08-29T09:52:54.238Z,27.82
2022-08-29T09:55:26.113Z,27.83
2022-08-29T09:57:55.618Z,27.82
2022-08-29T10:00:29.357Z,27.83
2022-08-29T10:02:58.170Z,27.83
2022-08-29T10:05:35.944Z,27.82
2022-08-29T10:08:06.575Z,27.82
2022-08-29T10:10:36.229Z,27.82
2022-08-29T10:13:08.410Z,27.83
2022-08-29T10:15:50.375Z,27.83
2022-08-29T10:18:24.107Z,27.84
2022-08-29T10:20:56.849Z,27.84
2022-08-29T10:23:28.853Z,27.84
2022-08-29T10:25:56.826Z,27.86
2022-08-29T10:28:27.375Z,27.87
2022-08-29T10:30:57.852Z,27.88
2022-08-29T10:33:54.994Z,27.89
2022-08-29T10:36:26.692Z,27.90
2022-08-29T10:38:58.127Z,27.90
2022-08-29T10:41:30.816Z,27.90
2022-08-29T10:44:04.263Z,27.91
2022-08-29T10:46:46.905Z,27.91
2022-08-29T10:49:20.416Z,27.93
2022-08-29T10:51:50.885Z,27.94
2022-08-29T10:54:23.919Z,27.94
2022-08-29T10:56:51.924Z,27.94
2022-08-29T10:59:21.991Z,27.94
2022-08-29T11:01:53.275Z,27.94
2022-08-29T11:04:23.001Z,27.94
2022-08-29T11:06:54.464Z,27.93
2022-08-29T11:09:25.590Z,27.93
2022-08-29T11:12:01.135Z,27.93
2022-08-29T11:14:32.332Z,27.94
2022-08-29T11:17:03.258Z,27.93
2022-08-29T11:19:33.800Z,27.93
2022-08-29T11:22:03.755Z,27.94
2022-08-29T11:24:35.134Z,27.96
2022-08-29T11:27:07.085Z,27.97
2022-08-29T11:29:42.660Z,27.96
2022-08-29T11:32:13.401Z,27.99
2022-08-29T11:34:48.342Z,27.99
2022-08-29T11:37:40.782Z,27.99
2022-08-29T11:40:12.685Z,27.99
2022-08-29T11:42:50.168Z,28.00
2022-08-29T11:45:25.049Z,28.01
2022-08-29T11:48:17.690Z,28.01
2022-08-29T11:50:45.947Z,28.03
2022-08-29T11:53:16.788Z,28.02
2022-08-29T11:55:46.673Z,28.03
2022-08-29T11:58:43.031Z,28.03
2022-08-29T12:01:20.840Z,28.02
2022-08-29T12:03:48.939Z,28.03
2022-08-29T12:06:40.160Z,28.04
2022-08-29T12:09:18.512Z,28.02
2022-08-29T12:12:18.454Z,28.03
2022-08-29T12:14:47.093Z,28.03
2022-08-29T12:18:00.803Z,28.03
2022-08-29T12:20:41.896Z,28.02
2022-08-29T12:23:19.846Z,28.03
2022-08-29T12:26:03.853Z,28.05
2022-08-29T12:28:49.555Z,28.05
2022-08-29T12:31:31.774Z,28.04
2022-08-29T12:34:08.975Z,28.06
2022-08-29T12:36:48.916Z,28.06
2022-08-29T12:39:27.718Z,28.06
2022-08-29T12:42:16.136Z,28.08
2022-08-29T12:44:46.532Z,28.07
2022-08-29T12:47:15.849Z,28.08
2022-08-29T12:49:48.540Z,28.09
2022-08-29T12:52:23.177Z,28.08
2022-08-29T12:54:56.125Z,28.06
2022-08-29T12:57:33.942Z,28.08
2022-08-29T13:00:05.452Z,28.08
2022-08-29T13:02:34.797Z,28.08
2022-08-29T13:05:03.011Z,28.08
2022-08-29T13:07:31.163Z,28.09
2022-08-29T13:10:00.273Z,28.08
2022-08-29T13:12:29.381Z,28.07
2022-08-29T13:15:00.218Z,28.08
2022-08-29T13:17:31.145Z,28.08
2022-08-29T13:20:36.115Z,28.09
2022-08-29T13:23:25.778Z,28.10
2022-08-29T13:25:56.278Z,28.10
2022-08-29T13:28:29.358Z,28.12
2022-08-29T13:31:31.481Z,28.12
2022-08-29T13:34:15.853Z,28.12
2022-08-29T13:36:47.854Z,28.12
2022-08-29T13:39:26.476Z,28.13
2022-08-29T13:42:20.511Z,28.14
2022-08-29T13:45:10.698Z,28.14
2022-08-29T13:48:00.763Z,28.13
2022-08-29T13:50:30.933Z,28.13
2022-08-29T13:52:58.977Z,28.13
2022-08-29T13:55:27.351Z,28.13
2022-08-29T13:57:55.815Z,28.14
2022-08-29T14:00:32.167Z,28.13
2022-08-29T14:03:22.221Z,28.13
2022-08-29T14:05:56.517Z,28.13
2022-08-29T14:08:24.748Z,28.13
2022-08-29T14:10:52.725Z,28.13
2022-08-29T14:13:20.715Z,28.13
2022-08-29T14:15:48.753Z,28.13
2022-08-29T14:18:17.190Z,28.14
2022-08-29T14:20:45.153Z,28.13
2022-08-29T14:23:14.583Z,28.13
2022-08-29T14:25:43.071Z,28.14
2022-08-29T14:28:13.919Z,28.14
2022-08-29T14:30:49.468Z,28.14
2022-08-29T14:33:20.296Z,28.13
2022-08-29T14:35:48.396Z,28.13
2022-08-29T14:38:18.047Z,28.14
2022-08-29T14:40:46.470Z,28.14
2022-08-29T14:43:14.694Z,28.14
2022-08-29T14:45:42.826Z,28.14
2022-08-29T14:48:10.905Z,28.14
2022-08-29T14:50:39.076Z,28.15
2022-08-29T14:53:07.308Z,28.14
2022-08-29T14:55:36.807Z,28.14
2022-08-29T14:58:04.995Z,28.14
2022-08-29T15:00:34.078Z,28.14
2022-08-29T15:03:02.171Z,28.15
2022-08-29T15:05:30.879Z,28.16
2022-08-29T15:08:01.886Z,28.16
2022-08-29T15:10:34.086Z,28.16
2022-08-29T15:13:03.618Z,28.16
2022-08-29T15:15:31.811Z,28.17
2022-08-29T15:18:00.430Z,28.17
2022-08-29T15:20:36.187Z,28.15
2022-08-29T15:23:05.661Z,28.16
2022-08-29T15:25:33.882Z,28.17
2022-08-29T15:28:03.760Z,28.17
2022-08-29T15:30:31.890Z,28.18
2022-08-29T15:32:59.964Z,28.17
2022-08-29T15:35:28.116Z,28.17
2022-08-29T15:37:56.229Z,28.17
2022-08-29T15:40:24.324Z,28.17
2022-08-29T15:42:52.378Z,28.17
2022-08-29T15:45:22.564Z,28.18
2022-08-29T15:47:51.370Z,28.17
2022-08-29T15:50:22.813Z,28.19
2022-08-29T15:52:51.103Z,28.17
2022-08-29T15:55:20.200Z,28.17
2022-08-29T15:57:52.503Z,28.17
2022-08-29T16:00:29.581Z,28.17
2022-08-29T16:03:03.313Z,28.16
2022-08-29T16:05:32.234Z,28.16
2022-08-29T16:08:00.830Z,28.16
2022-08-29T16:10:28.845Z,28.15
2022-08-29T16:12:57.035Z,28.16
2022-08-29T16:15:27.820Z,28.15
2022-08-29T16:17:56.017Z,28.14
2022-08-29T16:20:24.030Z,28.14
2022-08-29T16:22:52.225Z,28.14
2022-08-29T16:25:23.463Z,28.14
2022-08-29T16:27:53.282Z,28.14
2022-08-29T16:30:21.520Z,28.13
2022-08-29T16:32:51.721Z,28.14
2022-08-29T16:35:20.494Z,28.14
2022-08-29T16:38:02.264Z,28.14
2022-08-29T16:40:31.562Z,28.14
2022-08-29T16:42:59.964Z,28.13
2022-08-29T16:45:28.026Z,28.15
2022-08-29T16:47:57.838Z,28.13
2022-08-29T16:50:26.715Z,28.15
2022-08-29T16:52:54.760Z,28.15
2022-08-29T16:55:23.076Z,28.14
2022-08-29T16:58:04.949Z,28.14
2022-08-29T17:00:33.016Z,28.14
2022-08-29T17:03:02.461Z,28.13
2022-08-29T17:05:30.822Z,28.13
2022-08-29T17:07:57.676Z,28.12
2022-08-29T17:10:24.504Z,28.12
2022-08-29T17:12:51.444Z,28.12
2022-08-29T17:15:18.458Z,28.11
2022-08-29T17:17:47.398Z,28.12
2022-08-29T17:20:16.936Z,28.11
2022-08-29T17:22:44.957Z,28.09
2022-08-29T17:25:13.213Z,28.10
2022-08-29T17:27:55.459Z,28.10
2022-08-29T17:30:30.888Z,28.10
2022-08-29T17:32:58.976Z,28.11
2022-08-29T17:35:28.460Z,28.11
2022-08-29T17:37:56.575Z,28.10
2022-08-29T17:40:26.521Z,28.10
2022-08-29T17:42:56.308Z,28.10
2022-08-29T17:45:27.969Z,28.09
2022-08-29T17:47:56.635Z,28.11
2022-08-29T17:50:24.784Z,28.11
2022-08-29T17:52:54.306Z,28.12
2022-08-29T17:55:22.403Z,28.11
2022-08-29T17:57:50.523Z,28.10
2022-08-29T18:00:19.308Z,28.10
2022-08-29T18:02:47.409Z,28.10
2022-08-29T18:05:15.796Z,28.09
2022-08-29T18:07:43.927Z,28.09
2022-08-29T18:10:14.910Z,28.09
2022-08-29T18:12:42.949Z,28.09
2022-08-29T18:15:12.504Z,28.08
2022-08-29T18:17:40.683Z,28.08
2022-08-29T18:20:10.776Z,28.06
2022-08-29T18:22:39.703Z,28.08
2022-08-29T18:25:08.508Z,28.06
2022-08-29T18:27:43.101Z,28.07
2022-08-29T18:30:13.611Z,28.06
2022-08-29T18:32:42.267Z,28.06
2022-08-29T18:35:10.888Z,28.06
2022-08-29T18:37:39.612Z,28.08
2022-08-29T18:40:09.369Z,28.07
2022-08-29T18:42:41.415Z,28.08
2022-08-29T18:45:10.475Z,28.08
2022-08-29T18:47:38.503Z,28.08
2022-08-29T18:50:25.322Z,28.08
2022-08-29T18:52:53.518Z,28.07
2022-08-29T18:55:23.476Z,28.06
2022-08-29T18:57:53.133Z,28.06
2022-08-29T19:00:21.608Z,28.07
2022-08-29T19:02:50.133Z,28.05
2022-08-29T19:05:18.947Z,28.05
2022-08-29T19:07:47.084Z,28.05
2022-08-29T19:10:15.218Z,28.04
2022-08-29T19:12:44.310Z,28.04
2022-08-29T19:15:16.869Z,28.03
2022-08-29T19:17:44.960Z,28.04
2022-08-29T19:20:31.315Z,28.03
2022-08-29T19:22:59.452Z,28.02
2022-08-29T19:25:28.630Z,28.01
2022-08-29T19:27:56.756Z,28.02
2022-08-29T19:30:26.350Z,28.01
2022-08-29T19:32:55.193Z,28.01
2022-08-29T19:35:23.515Z,28.02
2022-08-29T19:37:52.003Z,28.02
2022-08-29T19:40:20.750Z,28.02
2022-08-29T19:42:48.945Z,28.01
2022-08-29T19:45:17.500Z,28.01
2022-08-29T19:47:47.283Z,28.02
2022-08-29T19:50:17.089Z,28.01
2022-08-29T19:52:48.027Z,28.01
2022-08-29T19:55:17.814Z,28.01
2022-08-29T19:57:46.608Z,28.00
2022-08-29T20:00:16.145Z,28.00
2022-08-29T20:02:44.228Z,28.00
2022-08-29T20:05:15.603Z,27.99
2022-08-29T20:07:44.854Z,27.99
2022-08-29T20:10:15.020Z,27.98
2022-08-29T20:12:44.277Z,27.99
2022-08-29T20:15:14.135Z,27.98
2022-08-29T20:17:43.156Z,27.96
2022-08-29T20:20:13.482Z,27.96
2022-08-29T20:22:43.183Z,27.96
2022-08-29T20:25:13.146Z,27.94
2022-08-29T20:27:41.316Z,27.94
2022-08-29T20:30:12.866Z,27.94
2022-08-29T20:32:40.928Z,27.94
2022-08-29T20:35:09.391Z,27.95
2022-08-29T20:37:38.114Z,27.95
2022-08-29T20:40:12.058Z,27.94
2022-08-29T20:42:40.160Z,27.93
2022-08-29T20:45:09.474Z,27.94
2022-08-29T20:47:37.603Z,27.94
2022-08-29T20:50:06.446Z,27.94
2022-08-29T20:52:34.574Z,27.93
2022-08-29T20:55:05.037Z,27.94
2022-08-29T20:57:39.230Z,27.94
2022-08-29T21:00:09.112Z,27.94
2022-08-29T21:02:54.459Z,27.94
2022-08-29T21:05:42.544Z,27.93
2022-08-29T21:08:11.403Z,27.92
2022-08-29T21:10:39.590Z,27.91
2022-08-29T21:13:09.455Z,27.91
2022-08-29T21:15:37.868Z,27.90
2022-08-29T21:18:06.571Z,27.90
2022-08-29T21:20:37.524Z,27.89
2022-08-29T21:23:13.071Z,27.88
2022-08-29T21:25:41.376Z,27.87
2022-08-29T21:28:11.013Z,27.87
2022-08-29T21:30:45.364Z,27.87
2022-08-29T21:33:13.752Z,27.87
2022-08-29T21:35:42.051Z,27.87
2022-08-29T21:38:10.414Z,27.87
2022-08-29T21:40:44.197Z,27.87
2022-08-29T21:43:20.840Z,27.87
2022-08-29T21:45:49.020Z,27.87
2022-08-29T21:48:17.086Z,27.88
2022-08-29T21:50:45.170Z,27.87
2022-08-29T21:53:14.198Z,27.87
2022-08-29T21:55:42.481Z,27.87
2022-08-29T21:58:10.559Z,27.87
2022-08-29T22:00:42.016Z,27.87
2022-08-29T22:03:12.192Z,27.85
2022-08-29T22:05:43.905Z,27.83
2022-08-29T22:08:13.933Z,27.84
2022-08-29T22:10:45.209Z,27.83
2022-08-29T22:13:13.263Z,27.83
2022-08-29T22:16:00.146Z,27.81
2022-08-29T22:18:28.301Z,27.82
2022-08-29T22:21:00.449Z,27.81
2022-08-29T22:23:29.668Z,27.81
2022-08-29T22:25:58.937Z,27.80
2022-08-29T22:28:27.265Z,27.80
2022-08-29T22:30:56.804Z,27.79
2022-08-29T22:33:24.821Z,27.78
2022-08-29T22:35:53.013Z,27.77
2022-08-29T22:38:21.082Z,27.77
2022-08-29T22:40:49.249Z,27.78
2022-08-29T22:43:17.402Z,27.78
2022-08-29T22:45:45.857Z,27.77
2022-08-29T22:48:16.407Z,27.79
2022-08-29T22:50:54.036Z,27.76
2022-08-29T22:53:26.723Z,27.78
2022-08-29T22:55:54.837Z,27.77
2022-08-29T22:58:23.298Z,27.78
2022-08-29T23:00:51.419Z,27.78
2022-08-29T23:03:20.902Z,27.77
2022-08-29T23:05:49.031Z,27.76
2022-08-29T23:08:17.839Z,27.77
2022-08-29T23:10:46.178Z,27.75
2022-08-29T23:13:17.781Z,27.75
2022-08-29T23:15:45.964Z,27.75
2022-08-29T23:18:14.209Z,27.74
2022-08-29T23:20:45.674Z,27.72
2022-08-29T23:23:15.077Z,27.71
2022-08-29T23:25:43.303Z,27.71
2022-08-29T23:28:11.311Z,27.71
2022-08-29T23:30:39.320Z,27.70
2022-08-29T23:33:07.374Z,27.70
2022-08-29T23:35:37.093Z,27.69
2022-08-29T23:38:07.739Z,27.69
2022-08-29T23:40:36.226Z,27.69
2022-08-29T23:43:04.771Z,27.67
2022-08-29T23:45:33.470Z,27.68
2022-08-29T23:48:01.481Z,27.68
2022-08-29T23:50:29.583Z,27.68
2022-08-29T23:52:57.897Z,27.69
2022-08-29T23:55:27.397Z,27.69
2022-08-29T23:57:55.475Z,27.67
